Simpson, North Carolina
Current Conditions -  °F | °C
As of 8:15 PM on Sunday 23 Nov 2014 (Local Time) from KPGV Reporting Station
Scattered Clouds Scattered Clouds  
Wind Chill: 61°   Ceiling: Unl
Heat Index: 61°   Visibility: 10mi
Dew Point: 61°   Wind: 5mph
Humidity: 100%   Direction: 130°SE
Pressure: 29.96"   Gusts: NA
Location:  35.58°N, 77.28°W
Report Text: KPGV 240115Z AUTO 13004KT 10SM SCT007 SCT019 SCT030 16/16 A2996 RMK AO2
Loading
Personal Weather Stations






























Interactive Weather Map New forecast layout! Learn more

10-Day Weather Forecast

Advertisements
Track Severe Weather on mobile